Time;durP1;ratioP1;P1;durP2;ratioP2;P2;SDS_P1;SDS_P2;PMS_P1;PMS_P2;Temp;Humidity;BMP_temperature;BMP_pressure;BME280_temperature;BME280_humidity;BME280_pressure;Samples;Min_cycle;Max_cycle;Signal;HPM_P1;HPM_P2
2021/05/21 00:00:55;;;;;;;;;26.40;21.40;;;;;17.02;45.41;98823.38;6210083;28;126288;-67
2021/05/21 00:03:57;;;;;;;;;23.00;20.00;;;;;16.97;45.47;98823.38;6210140;28;124894;-67
2021/05/21 00:07:00;;;;;;;;;26.50;23.75;;;;;16.94;45.68;98828.53;6209991;28;125108;-67
2021/05/21 00:10:09;;;;;;;;;24.00;23.00;;;;;16.89;45.83;98829.31;6210142;28;125814;-67
2021/05/21 00:13:11;;;;;;;;;22.60;22.20;;;;;16.91;45.69;98827.13;6211022;28;124908;-68
2021/05/21 00:16:15;;;;;;;;;21.60;20.60;;;;;16.86;45.86;98829.84;6213340;28;124871;-67
2021/05/21 00:19:17;;;;;;;;;23.00;21.20;;;;;16.83;45.93;98830.38;6208361;28;123395;-68
2021/05/21 00:22:20;;;;;;;;;24.25;21.75;;;;;16.79;45.88;98811.03;6214107;28;125116;-67
2021/05/21 00:25:23;;;;;;;;;25.80;23.80;;;;;16.82;46.01;98823.28;6213946;28;126310;-67
2021/05/21 00:28:26;;;;;;;;;23.00;20.67;;;;;16.82;45.89;98817.84;6214095;28;126304;-68
2021/05/21 00:31:37;;;;;;;;;27.00;25.60;;;;;16.60;46.23;98798.94;6212978;28;125137;-67
2021/05/21 00:34:47;;;;;;;;;24.60;22.60;;;;;16.73;45.72;98814.78;6213989;28;126260;-67
2021/05/21 00:37:50;;;;;;;;;26.00;24.00;;;;;16.68;46.37;98822.94;6214009;28;125257;-67
2021/05/21 00:40:53;;;;;;;;;28.80;25.80;;;;;16.63;46.52;98812.00;6214053;28;125453;-67
2021/05/21 00:43:56;;;;;;;;;29.00;27.00;;;;;16.68;46.27;98816.66;6227295;28;125044;-68
2021/05/21 00:47:03;;;;;;;;;25.25;25.00;;;;;16.65;46.38;98809.84;6228805;28;124922;-68
2021/05/21 00:50:07;;;;;;;;;28.60;26.60;;;;;16.64;46.34;98807.38;6215032;28;125137;-67
2021/05/21 00:53:11;;;;;;;;;26.40;25.20;;;;;16.58;46.31;98803.81;6213323;28;125474;-67
2021/05/21 00:56:14;;;;;;;;;32.33;28.00;;;;;16.55;46.68;98815.19;6213564;28;124823;-67
2021/05/21 00:59:17;;;;;;;;;27.00;25.60;;;;;16.39;47.05;98803.38;6218637;28;123112;-67
2021/05/21 01:02:20;;;;;;;;;28.20;25.60;;;;;16.29;47.11;98795.16;6212307;28;125081;-68
2021/05/21 01:05:24;;;;;;;;;27.80;26.80;;;;;16.35;47.03;98809.63;6230194;28;125037;-68
2021/05/21 01:08:27;;;;;;;;;27.75;26.75;;;;;16.27;47.37;98799.22;6236837;27;123016;-68
2021/05/21 01:11:38;;;;;;;;;27.80;25.20;;;;;16.26;47.16;98798.41;6237674;27;124800;-68
2021/05/21 01:14:47;;;;;;;;;26.60;24.20;;;;;16.26;47.27;98790.25;6237814;27;124930;-67
2021/05/21 01:17:51;;;;;;;;;27.50;25.00;;;;;16.27;47.10;98783.69;6223646;27;125630;-68
2021/05/21 01:20:54;;;;;;;;;27.00;26.00;;;;;16.25;47.33;98785.03;6231415;28;126316;-68
2021/05/21 01:23:58;;;;;;;;;32.00;28.00;;;;;16.06;46.91;98753.91;6235851;27;124956;-68
2021/05/21 01:27:02;;;;;;;;;25.00;24.00;;;;;16.25;47.10;98785.88;6238026;27;123680;-67
2021/05/21 01:30:07;;;;;;;;;27.40;25.20;;;;;16.26;47.13;98792.13;6216740;27;125099;-67
2021/05/21 01:33:11;;;;;;;;;28.00;26.67;;;;;16.22;47.73;98780.13;6224265;28;125785;-68
2021/05/21 01:36:15;;;;;;;;;26.00;24.00;;;;;16.18;47.54;98784.44;6224208;27;124872;-67
2021/05/21 01:39:18;;;;;;;;;28.50;26.00;;;;;16.17;47.63;98782.81;6228081;28;124753;-67
2021/05/21 01:42:20;;;;;;;;;29.00;27.00;;;;;16.13;47.65;98792.56;6212333;28;124790;-67
2021/05/21 01:45:24;;;;;;;;;27.00;27.00;;;;;16.15;47.69;98784.97;6212223;28;126694;-67
2021/05/21 01:48:27;;;;;;;;;26.00;24.00;;;;;16.15;47.56;98782.25;6212179;28;126723;-67
2021/05/21 01:51:31;;;;;;;;;28.50;27.00;;;;;16.01;47.68;98765.56;6212528;28;124841;-68
2021/05/21 01:54:36;;;;;;;;;29.40;23.80;;;;;16.17;47.64;98780.94;6213490;28;124611;-67
2021/05/21 01:57:40;;;;;;;;;25.00;23.00;;;;;16.19;47.57;98775.19;6211549;28;123793;-67
2021/05/21 02:00:43;;;;;;;;;23.00;22.00;;;;;16.18;47.37;98771.66;6212077;28;126251;-67
2021/05/21 02:03:45;;;;;;;;;28.75;24.00;;;;;16.20;47.35;98768.69;6210695;28;125188;-67
2021/05/21 02:06:49;;;;;;;;;26.20;23.20;;;;;16.17;47.32;98772.75;6210311;28;126140;-68
2021/05/21 02:09:55;;;;;;;;;23.00;21.00;;;;;16.17;47.31;98770.03;6214775;28;126354;-67
2021/05/21 02:12:58;;;;;;;;;24.60;23.00;;;;;16.16;47.12;98767.56;6236901;27;124467;-68
2021/05/21 02:16:00;;;;;;;;;25.00;23.00;;;;;16.13;47.31;98768.91;6235687;28;124222;-67
2021/05/21 02:19:03;;;;;;;;;24.00;21.75;;;;;16.11;47.31;98773.81;6234401;28;124243;-67
2021/05/21 02:22:08;;;;;;;;;24.00;21.00;;;;;16.08;47.29;98774.31;6227422;27;127194;-67
2021/05/21 02:25:14;;;;;;;;;19.00;18.00;;;;;16.07;47.30;98763.69;6221061;28;125843;-67
2021/05/21 02:28:17;;;;;;;;;24.00;22.00;;;;;15.87;47.33;98734.44;6235873;27;126288;-67
2021/05/21 02:31:20;;;;;;;;;23.00;21.40;;;;;16.02;47.38;98759.03;6218820;28;125375;-67
2021/05/21 02:34:22;;;;;;;;;21.50;20.00;;;;;16.00;47.10;98767.44;6235519;27;124918;-67
2021/05/21 02:37:27;;;;;;;;;22.00;21.00;;;;;15.96;47.15;98769.06;6236210;27;125744;-67
2021/05/21 02:40:30;;;;;;;;;23.80;21.00;;;;;15.94;47.29;98763.03;6218459;28;124229;-67
2021/05/21 02:43:32;;;;;;;;;22.00;20.00;;;;;15.96;47.21;98763.63;6234775;28;124251;-67
2021/05/21 02:46:35;;;;;;;;;21.00;20.00;;;;;15.98;47.24;98768.78;6234366;28;126754;-68
2021/05/21 02:49:38;;;;;;;;;22.00;20.60;;;;;15.91;47.25;98773.63;6219397;27;126459;-67
2021/05/21 02:52:42;;;;;;;;;21.00;19.00;;;;;15.94;47.42;98771.19;6226611;28;124802;-67
2021/05/21 02:55:44;;;;;;;;;19.20;18.20;;;;;15.94;47.31;98767.66;6231525;28;127290;-67
2021/05/21 02:58:47;;;;;;;;;20.75;19.00;;;;;15.91;47.38;98779.88;6235389;27;126497;-67
2021/05/21 03:01:50;;;;;;;;;16.50;16.00;;;;;15.90;47.39;98780.13;6236378;27;126308;-67
2021/05/21 03:04:53;;;;;;;;;18.40;16.40;;;;;15.94;47.16;98775.81;6236565;27;126154;-67
2021/05/21 03:07:58;;;;;;;;;17.00;15.00;;;;;15.94;47.26;98773.91;6232515;28;124371;-67
2021/05/21 03:11:00;;;;;;;;;16.00;16.00;;;;;15.98;47.26;98766.88;6230887;28;125371;-67
2021/05/21 03:14:04;;;;;;;;;16.00;16.00;;;;;16.04;46.97;98770.47;6209731;28;125224;-67
2021/05/21 03:17:06;;;;;;;;;16.00;16.00;;;;;16.09;46.77;98766.97;6211012;28;126321;-67
2021/05/21 03:20:10;;;;;;;;;15.00;14.00;;;;;16.15;46.74;98765.94;6211108;28;124366;-67
2021/05/21 03:23:14;;;;;;;;;18.20;15.40;;;;;16.22;46.69;98755.66;6210850;28;124866;-67
2021/05/21 03:26:17;;;;;;;;;15.60;15.00;;;;;16.25;46.97;98761.38;6226039;28;125780;-67
2021/05/21 03:29:20;;;;;;;;;16.00;15.00;;;;;16.30;46.48;98761.44;6223165;28;126495;-67
2021/05/21 03:32:24;;;;;;;;;15.00;15.00;;;;;16.34;46.39;98754.38;6225289;28;124506;-67
2021/05/21 03:35:28;;;;;;;;;17.20;16.00;;;;;16.34;46.31;98757.09;6228776;28;126025;-67
2021/05/21 03:38:32;;;;;;;;;16.75;15.00;;;;;16.40;46.18;98747.06;6234720;27;126234;-67
2021/05/21 03:41:35;;;;;;;;;16.40;15.00;;;;;16.52;45.88;98757.75;6234273;28;124588;-67
2021/05/21 03:44:38;;;;;;;;;16.00;14.20;;;;;16.56;45.75;98750.72;6221923;27;124884;-67
2021/05/21 03:47:41;;;;;;;;;16.20;16.00;;;;;16.65;45.61;98749.16;6222563;28;126777;-67
2021/05/21 03:50:44;;;;;;;;;16.80;14.80;;;;;16.56;45.58;98718.88;6237175;28;127281;-67
2021/05/21 03:53:48;;;;;;;;;15.80;13.80;;;;;16.73;45.48;98756.81;6239511;27;126391;-67
2021/05/21 03:56:51;;;;;;;;;15.00;14.00;;;;;16.67;45.40;98750.50;6236127;27;125908;-67
2021/05/21 03:59:53;;;;;;;;;17.00;15.40;;;;;16.76;45.20;98759.00;6229496;28;123115;-67
2021/05/21 04:02:57;;;;;;;;;13.00;12.00;;;;;16.59;45.04;98729.25;6221488;28;127209;-67
2021/05/21 04:05:59;;;;;;;;;13.00;12.50;;;;;16.88;44.95;98763.16;6214240;28;126126;-67
2021/05/21 04:09:06;;;;;;;;;13.40;13.00;;;;;16.96;44.65;98764.53;6214517;28;124775;-67
2021/05/21 04:12:09;;;;;;;;;15.00;14.00;;;;;17.01;44.69;98758.28;6217717;28;125970;-67
2021/05/21 04:15:13;;;;;;;;;13.00;12.80;;;;;17.05;44.52;98765.69;6214754;28;126449;-66
2021/05/21 04:18:16;;;;;;;;;13.00;11.00;;;;;17.07;44.60;98768.94;6214561;28;124294;-66
2021/05/21 04:21:19;;;;;;;;;13.60;12.00;;;;;17.11;44.60;98763.78;6227104;28;125112;-66
2021/05/21 04:24:22;;;;;;;;;14.40;13.40;;;;;17.10;44.57;98762.16;6213523;28;126133;-67
2021/05/21 04:27:25;;;;;;;;;13.00;12.00;;;;;17.16;44.47;98761.88;6223360;28;125255;-67
2021/05/21 04:30:28;;;;;;;;;14.80;13.20;;;;;17.24;44.24;98760.56;6238464;27;125856;-67
2021/05/21 04:33:31;;;;;;;;;12.80;12.40;;;;;17.40;44.33;98762.22;6234471;28;126192;-66
2021/05/21 04:36:33;;;;;;;;;10.80;9.00;;;;;17.56;43.57;98768.53;6235089;28;125188;-67
2021/05/21 04:39:38;;;;;;;;;12.00;12.00;;;;;17.72;43.49;98768.34;6225657;28;122751;-68
2021/05/21 04:42:40;;;;;;;;;11.60;11.40;;;;;17.83;42.90;98765.63;6221969;28;125934;-68
2021/05/21 04:45:43;;;;;;;;;14.00;13.00;;;;;17.93;42.92;98765.63;6227341;28;127531;-68
2021/05/21 04:48:46;;;;;;;;;13.00;13.00;;;;;18.02;42.95;98764.81;6215709;28;125143;-68
2021/05/21 04:51:49;;;;;;;;;11.00;10.60;;;;;18.17;43.42;98758.53;6213607;28;125240;-68
2021/05/21 04:54:52;;;;;;;;;10.75;9.75;;;;;18.32;42.45;98750.34;6213309;28;126317;-68
2021/05/21 04:57:55;;;;;;;;;10.50;9.50;;;;;18.43;42.17;98759.31;6212511;28;126536;-68
2021/05/21 05:00:58;;;;;;;;;15.60;15.00;;;;;18.51;42.33;98756.84;6215242;27;125990;-66
2021/05/21 05:04:00;;;;;;;;;13.00;12.00;;;;;18.59;41.77;98755.47;6228919;27;126155;-68
2021/05/21 05:07:03;;;;;;;;;16.20;13.60;;;;;18.58;42.00;98757.41;6206741;28;125316;-66
2021/05/21 05:10:08;;;;;;;;;15.00;13.00;;;;;18.65;42.06;98759.84;6228650;28;125866;-67
2021/05/21 05:13:11;;;;;;;;;13.20;12.00;;;;;18.73;42.17;98752.97;6218286;28;126564;-66
2021/05/21 05:16:14;;;;;;;;;11.80;11.00;;;;;18.84;41.48;98758.16;6212103;28;123708;-67
2021/05/21 05:19:16;;;;;;;;;12.00;12.00;;;;;18.92;41.28;98760.28;6213078;28;127247;-66
2021/05/21 05:22:19;;;;;;;;;11.80;11.00;;;;;18.91;41.16;98753.19;6223495;28;125279;-67
2021/05/21 05:25:23;;;;;;;;;12.00;11.80;;;;;19.07;41.34;98747.66;6235834;28;124707;-66
2021/05/21 05:28:26;;;;;;;;;12.50;11.00;;;;;19.18;40.67;98752.00;6226688;27;123919;-66
2021/05/21 05:31:29;;;;;;;;;10.60;10.40;;;;;19.33;40.50;98744.53;6237031;27;126060;-66
2021/05/21 05:34:31;;;;;;;;;12.50;12.00;;;;;19.41;40.58;98752.13;6224872;28;126754;-66
2021/05/21 05:37:34;;;;;;;;;13.50;12.25;;;;;19.50;40.92;98749.66;6211824;28;124401;-66
2021/05/21 05:40:38;;;;;;;;;12.75;11.75;;;;;19.67;40.50;98752.00;6210998;28;126990;-68
2021/05/21 05:43:41;;;;;;;;;12.75;12.50;;;;;19.83;40.33;98737.97;6210626;28;124759;-68
2021/05/21 05:46:44;;;;;;;;;12.00;11.00;;;;;19.92;40.55;98745.53;6209847;28;126318;-68
2021/05/21 05:49:47;;;;;;;;;11.60;10.60;;;;;20.04;39.40;98749.53;6209777;28;126324;-68
2021/05/21 05:52:49;;;;;;;;;10.00;9.60;;;;;20.18;40.31;98736.81;6220573;28;126314;-68
2021/05/21 05:55:53;;;;;;;;;10.40;10.00;;;;;20.32;39.51;98739.75;6226848;28;126321;-68
2021/05/21 05:58:55;;;;;;;;;15.40;12.00;;;;;20.64;39.39;98737.22;6217177;28;124940;-68
2021/05/21 06:01:58;;;;;;;;;10.60;10.00;;;;;20.85;38.66;98739.72;6236536;27;124679;-67
2021/05/21 06:05:02;;;;;;;;;10.00;9.40;;;;;21.08;37.91;98730.66;6236208;27;126634;-67
2021/05/21 06:08:07;;;;;;;;;11.50;11.00;;;;;21.24;37.69;98732.13;6220822;27;126173;-66
2021/05/21 06:11:11;;;;;;;;;9.00;8.00;;;;;21.19;36.75;98734.94;6198249;28;124704;-67
2021/05/21 06:14:13;;;;;;;;;8.00;7.00;;;;;21.15;36.08;98721.00;6223563;27;126135;-66
2021/05/21 06:17:18;;;;;;;;;5.60;5.60;;;;;21.28;35.18;98726.88;6225652;28;124509;-67
2021/05/21 06:20:22;;;;;;;;;8.00;8.00;;;;;21.38;36.38;98727.53;6213563;27;126022;-66
2021/05/21 06:23:25;;;;;;;;;10.00;8.00;;;;;21.53;36.16;98724.59;6223312;28;124994;-65
2021/05/21 06:26:32;;;;;;;;;9.60;9.00;;;;;21.66;35.86;98728.50;6228712;27;126254;-66
2021/05/21 06:29:35;;;;;;;;;7.00;7.00;;;;;21.79;34.98;98727.78;6227603;28;124420;-63
2021/05/21 06:32:38;;;;;;;;;8.00;7.00;;;;;21.94;34.52;98718.50;6221482;28;126287;-66
2021/05/21 06:35:41;;;;;;;;;7.00;6.00;;;;;22.15;34.08;98719.78;6223932;28;126703;-66
2021/05/21 06:38:43;;;;;;;;;6.00;6.00;;;;;22.19;33.60;98717.22;6235526;27;125169;-66
2021/05/21 06:41:47;;;;;;;;;5.00;5.00;;;;;22.25;33.51;98708.59;6216520;27;125591;-66
2021/05/21 06:44:50;;;;;;;;;6.00;5.00;;;;;22.37;33.52;98699.88;6214040;28;124675;-65
2021/05/21 06:47:53;;;;;;;;;5.00;5.00;;;;;22.44;33.27;98705.78;6226265;28;126111;-67
2021/05/21 06:50:56;;;;;;;;;7.00;6.00;;;;;22.54;33.63;98704.78;6215553;28;126346;-68
2021/05/21 06:53:58;;;;;;;;;5.00;5.00;;;;;22.60;33.30;98696.13;6220347;28;126816;-67
2021/05/21 06:57:03;;;;;;;;;4.40;4.40;;;;;22.61;32.99;98694.22;6229575;28;124831;-67
2021/05/21 07:00:07;;;;;;;;;5.60;5.60;;;;;22.91;33.73;98690.88;6229806;27;126338;-67
2021/05/21 07:03:10;;;;;;;;;5.20;5.20;;;;;23.12;32.82;98680.25;6227832;28;124975;-66
2021/05/21 07:06:12;;;;;;;;;7.00;6.00;;;;;23.12;31.87;98675.56;6225078;28;124087;-66
2021/05/21 07:09:15;;;;;;;;;8.75;7.00;;;;;23.31;32.70;98664.44;6228047;28;124866;-66
2021/05/21 07:12:19;;;;;;;;;4.80;4.20;;;;;23.33;32.35;98664.91;6204864;28;124160;-66
2021/05/21 07:15:22;;;;;;;;;7.50;7.50;;;;;23.49;31.85;98668.16;6210445;28;124659;-66
2021/05/21 07:18:26;;;;;;;;;7.00;7.00;;;;;23.35;32.01;98664.63;6219151;28;126986;-67
2021/05/21 07:21:28;;;;;;;;;8.00;7.00;;;;;23.42;32.04;98663.06;6228414;28;125899;-67
2021/05/21 07:24:39;;;;;;;;;6.00;5.00;;;;;23.27;32.28;98639.47;6226286;28;126110;-69
2021/05/21 07:27:43;;;;;;;;;6.00;6.00;;;;;23.54;32.54;98666.09;6207522;28;125173;-66
2021/05/21 07:30:46;;;;;;;;;5.00;5.00;;;;;23.77;31.09;98655.91;6196029;28;125639;-68
2021/05/21 07:33:49;;;;;;;;;6.00;5.60;;;;;23.81;30.65;98654.16;6222079;28;126182;-69
2021/05/21 07:36:52;;;;;;;;;6.00;6.00;;;;;23.88;30.60;98646.28;6231031;28;126039;-71
2021/05/21 07:39:55;;;;;;;;;4.00;3.50;;;;;24.03;30.76;98645.06;6209568;28;125067;-70
2021/05/21 07:42:58;;;;;;;;;5.00;5.00;;;;;24.21;30.32;98651.50;6209799;28;125046;-67
2021/05/21 07:46:01;;;;;;;;;3.25;3.00;;;;;24.29;29.93;98642.47;6201307;28;124588;-64
2021/05/21 07:49:05;;;;;;;;;3.20;3.20;;;;;24.43;28.89;98652.28;6210965;28;124995;-68
2021/05/21 07:52:07;;;;;;;;;2.00;2.00;;;;;24.35;28.58;98641.19;6210044;28;125148;-68
2021/05/21 07:55:12;;;;;;;;;3.00;3.00;;;;;24.28;28.97;98638.91;6211880;28;126207;-68
2021/05/21 07:58:16;;;;;;;;;4.00;3.00;;;;;24.31;29.07;98642.97;6219294;27;126045;-68
2021/05/21 08:01:18;;;;;;;;;4.00;4.00;;;;;24.40;29.90;98638.28;6212763;28;126133;-68
2021/05/21 08:04:21;;;;;;;;;4.00;4.00;;;;;24.71;28.75;98636.31;6224948;28;124347;-68
2021/05/21 08:07:24;;;;;;;;;3.00;3.00;;;;;24.81;29.29;98630.50;6230142;28;126428;-68
2021/05/21 08:10:27;;;;;;;;;3.00;3.00;;;;;24.74;28.77;98635.66;6211517;28;125244;-68
2021/05/21 08:13:31;;;;;;;;;4.00;4.00;;;;;24.85;28.50;98627.91;6213335;27;126281;-68
2021/05/21 08:16:35;;;;;;;;;5.00;5.00;;;;;24.85;27.77;98630.66;6218266;28;126684;-67
2021/05/21 08:19:38;;;;;;;;;3.00;3.00;;;;;24.97;27.96;98625.38;6226405;28;126076;-68
2021/05/21 08:22:41;;;;;;;;;4.00;3.40;;;;;25.03;28.47;98619.38;6212286;28;126783;-66
2021/05/21 08:25:44;;;;;;;;;5.60;4.00;;;;;25.37;28.17;98615.81;6209313;28;126803;-63
2021/05/21 08:28:48;;;;;;;;;3.80;3.80;;;;;25.47;27.09;98614.66;6191115;28;126299;-65
2021/05/21 08:31:51;;;;;;;;;5.00;5.00;;;;;25.55;27.19;98618.59;6209446;28;125144;-63
2021/05/21 08:34:53;;;;;;;;;5.75;5.75;;;;;25.13;26.50;98512.59;6214118;28;126127;-65
2021/05/21 08:37:56;;;;;;;;;3.40;3.00;;;;;25.98;27.21;98599.19;6214210;28;124347;-65
2021/05/21 08:41:00;;;;;;;;;5.00;4.00;;;;;25.87;26.82;98590.44;6228771;27;124588;-65
2021/05/21 08:44:04;;;;;;;;;4.00;3.60;;;;;25.95;26.38;98588.81;6228794;27;127251;-66
2021/05/21 08:47:07;;;;;;;;;6.00;5.00;;;;;26.34;27.29;98591.25;6214247;28;124734;-69
2021/05/21 08:50:12;;;;;;;;;6.40;5.40;;;;;26.72;27.02;98591.25;6214893;28;126067;-70
2021/05/21 08:53:14;;;;;;;;;4.80;3.20;;;;;27.00;25.23;98586.03;6221298;28;124964;-68
2021/05/21 08:56:17;;;;;;;;;3.00;3.00;;;;;27.26;25.15;98580.31;6228433;28;126009;-68
2021/05/21 08:59:21;;;;;;;;;3.00;2.00;;;;;27.31;23.87;98585.63;6214946;28;124943;-63
2021/05/21 09:02:26;;;;;;;;;1.50;1.50;;;;;27.29;24.72;98580.44;6227681;28;124839;-65
2021/05/21 09:05:28;;;;;;;;;3.00;2.40;;;;;27.25;23.77;98571.19;6226490;28;124705;-67
2021/05/21 09:08:35;;;;;;;;;3.00;2.00;;;;;26.90;24.90;98559.59;6215823;28;126921;-65
2021/05/21 09:11:40;;;;;;;;;2.00;2.00;;;;;26.77;23.65;98565.34;6233258;28;124217;-65
2021/05/21 09:15:09;;;;;;;;;1.20;1.20;;;;;26.67;24.15;98544.44;6226989;27;124929;-66
2021/05/21 09:18:12;;;;;;;;;2.00;2.00;;;;;26.80;24.58;98546.13;6219796;28;125849;-65
2021/05/21 09:21:17;;;;;;;;;2.00;1.80;;;;;26.99;23.98;98545.66;6217880;27;124914;-65
2021/05/21 09:24:23;;;;;;;;;4.00;4.00;;;;;27.23;24.68;98550.50;6223471;28;123928;-65
2021/05/21 09:27:26;;;;;;;;;4.00;4.00;;;;;27.66;23.72;98542.63;6222848;28;124883;-65
2021/05/21 09:30:30;;;;;;;;;3.00;3.00;;;;;27.99;24.59;98537.06;6229279;27;124572;-65
2021/05/21 09:33:34;;;;;;;;;4.00;4.00;;;;;28.01;23.74;98530.00;6216988;27;125520;-65
2021/05/21 09:36:39;;;;;;;;;4.00;4.00;;;;;27.76;23.75;98539.44;6217953;28;126560;-65
2021/05/21 09:40:00;;;;;;;;;4.00;4.00;;;;;27.57;23.80;98530.84;6216606;28;123011;-66
2021/05/21 09:43:07;;;;;;;;;3.00;3.00;;;;;27.73;24.12;98529.03;6217553;28;124737;-66
2021/05/21 09:46:11;;;;;;;;;2.40;2.40;;;;;27.83;23.75;98523.06;6236266;28;126821;-66
2021/05/21 09:49:28;;;;;;;;;2.80;2.00;;;;;28.13;23.23;98515.38;6235536;28;126418;-66
2021/05/21 09:52:43;;;;;;;;;3.00;3.00;;;;;27.91;22.68;98519.38;6237135;27;125887;-67
2021/05/21 09:55:51;;;;;;;;;2.40;2.00;;;;;27.42;22.87;98512.06;6228241;28;124906;-65
2021/05/21 09:59:06;;;;;;;;;3.00;3.00;;;;;27.49;22.25;98507.63;6232417;28;124744;-68
2021/05/21 10:02:23;;;;;;;;;3.00;3.00;;;;;27.73;21.37;98503.31;6221051;27;124667;-67
2021/05/21 10:05:31;;;;;;;;;3.00;3.00;;;;;27.68;20.50;98492.44;6226576;28;125219;-68
2021/05/21 10:08:36;;;;;;;;;2.00;2.00;;;;;27.39;20.96;98490.63;6222624;27;125203;-66
2021/05/21 10:11:42;;;;;;;;;3.00;3.00;;;;;27.06;21.89;98483.13;6211437;28;126182;-66
2021/05/21 10:14:48;;;;;;;;;1.60;1.00;;;;;27.41;21.14;98478.06;6215469;28;124698;-67
2021/05/21 10:17:53;;;;;;;;;3.00;2.80;;;;;27.48;20.54;98477.47;6212771;28;124236;-67
2021/05/21 10:20:57;;;;;;;;;2.00;2.00;;;;;27.20;20.53;98480.06;6224031;28;123896;-67
2021/05/21 10:24:02;;;;;;;;;1.75;1.75;;;;;27.10;21.35;98472.19;6234854;27;124882;-67
2021/05/21 10:27:13;;;;;;;;;2.00;2.00;;;;;27.13;20.26;98465.97;6231091;28;123792;-67
2021/05/21 10:30:20;;;;;;;;;2.00;2.00;;;;;27.03;20.77;98458.06;6220883;27;126003;-68
2021/05/21 10:33:32;;;;;;;;;1.00;1.00;;;;;26.99;21.36;98463.50;6212965;28;125777;-68
2021/05/21 10:36:53;;;;;;;;;1.00;1.00;;;;;27.26;22.03;98461.28;6215139;28;124128;-65
2021/05/21 10:40:23;;;;;;;;;3.00;2.00;;;;;27.40;21.93;98448.75;6218168;28;124642;-66
2021/05/21 10:43:50;;;;;;;;;1.00;1.00;;;;;27.32;20.38;98433.03;6224546;28;123758;-65
2021/05/21 10:47:21;;;;;;;;;2.00;2.00;;;;;27.56;20.75;98421.25;6220106;28;126088;-66
2021/05/21 10:50:33;;;;;;;;;2.00;2.00;;;;;27.69;20.87;98424.81;6223721;28;124963;-66
2021/05/21 10:53:40;;;;;;;;;2.40;2.40;;;;;27.83;21.28;98425.28;6221502;27;125975;-66
2021/05/21 10:56:44;;;;;;;;;2.00;2.00;;;;;27.89;18.74;98412.84;6221498;28;126245;-67
2021/05/21 10:59:55;;;;;;;;;1.20;1.20;;;;;28.07;19.20;98405.06;6212311;27;124999;-66
2021/05/21 11:02:58;;;;;;;;;2.00;2.00;;;;;28.08;19.25;98377.03;6220514;28;123474;-67
2021/05/21 11:06:20;;;;;;;;;2.00;2.00;;;;;28.59;20.49;98405.13;6225006;28;125089;-67
2021/05/21 11:09:25;;;;;;;;;2.20;1.80;;;;;28.84;20.91;98395.56;6219478;28;125888;-67
2021/05/21 11:12:43;;;;;;;;;2.00;2.00;;;;;28.95;19.98;98391.13;6228203;28;124272;-67
2021/05/21 11:15:47;;;;;;;;;1.60;1.60;;;;;29.14;20.56;98390.44;6228073;28;97454;-67
2021/05/21 11:18:50;;;;;;;;;2.00;2.00;;;;;29.31;21.28;98394.88;6229790;27;124424;-67
2021/05/21 11:22:17;;;;;;;;;2.00;2.00;;;;;29.49;21.19;98383.06;6206921;28;126161;-65
2021/05/21 11:25:20;;;;;;;;;1.00;1.00;;;;;29.53;19.20;98358.16;6212448;28;126160;-67
2021/05/21 11:28:22;;;;;;;;;2.00;2.00;;;;;29.33;17.42;98396.13;6226348;28;125072;-65
2021/05/21 11:31:27;;;;;;;;;1.00;1.00;;;;;28.97;18.14;98366.59;6226803;27;125030;-66
2021/05/21 11:34:29;;;;;;;;;2.00;2.00;;;;;28.83;19.42;98367.00;6225219;28;124669;-67
2021/05/21 11:37:33;;;;;;;;;1.00;1.00;;;;;28.79;16.91;98362.50;6213268;28;125977;-67
2021/05/21 11:40:36;;;;;;;;;1.00;1.00;;;;;28.74;16.87;98348.91;6213522;27;127036;-66
2021/05/21 11:43:40;;;;;;;;;1.00;1.00;;;;;28.57;18.00;98344.44;6213136;28;126287;-67
2021/05/21 11:46:45;;;;;;;;;2.00;2.00;;;;;28.52;17.61;98350.25;6214136;28;124788;-67
2021/05/21 11:49:48;;;;;;;;;2.00;2.00;;;;;28.46;17.16;98348.06;6209040;28;125301;-67
2021/05/21 11:52:52;;;;;;;;;1.00;1.00;;;;;28.63;18.20;98342.22;6214627;27;125071;-66
2021/05/21 11:55:54;;;;;;;;;1.00;1.00;;;;;28.48;18.04;98329.13;6211386;28;124904;-69
2021/05/21 11:59:01;;;;;;;;;1.00;1.00;;;;;28.51;18.57;98325.63;6212356;28;125214;-66
2021/05/21 12:02:05;;;;;;;;;1.75;1.75;;;;;28.54;17.52;98325.72;6209415;28;123906;-67
2021/05/21 12:05:09;;;;;;;;;1.00;1.00;;;;;28.66;17.33;98333.19;6214350;27;126150;-68
2021/05/21 12:08:13;;;;;;;;;2.00;1.40;;;;;28.82;17.41;98334.09;6213728;28;124151;-66
2021/05/21 12:11:16;;;;;;;;;1.00;1.00;;;;;28.67;17.72;98312.63;6216694;27;125189;-65
2021/05/21 12:14:20;;;;;;;;;1.00;1.00;;;;;28.73;17.89;98319.56;6217900;28;126246;-66
2021/05/21 12:17:23;;;;;;;;;2.00;2.00;;;;;28.80;17.53;98320.56;6212673;27;125369;-65
2021/05/21 12:20:26;;;;;;;;;2.00;1.00;;;;;28.79;18.09;98310.63;6216839;28;126235;-66
2021/05/21 12:23:37;;;;;;;;;1.00;1.00;;;;;29.02;17.84;98319.16;6215841;28;126449;-67
2021/05/21 12:26:42;;;;;;;;;1.00;1.00;;;;;28.98;18.12;98323.78;6215567;28;123805;-65
2021/05/21 12:29:45;;;;;;;;;2.00;2.00;;;;;28.81;18.16;98321.38;6216590;28;124543;-67
2021/05/21 12:32:49;;;;;;;;;2.00;2.00;;;;;28.89;17.89;98319.56;6219953;28;125155;-67
2021/05/21 12:35:51;;;;;;;;;1.60;1.60;;;;;29.04;18.25;98310.47;6217356;28;125976;-68
2021/05/21 12:38:58;;;;;;;;;2.00;2.00;;;;;29.06;18.35;98283.97;6217933;27;127386;-67
2021/05/21 12:42:02;;;;;;;;;3.00;2.00;;;;;29.10;18.60;98303.50;6214989;28;124815;-67
2021/05/21 12:45:08;;;;;;;;;2.00;2.00;;;;;29.20;18.58;98291.84;6216530;28;125602;-66
2021/05/21 12:48:10;;;;;;;;;2.00;1.00;;;;;29.44;18.13;98286.13;6212670;28;125841;-68
2021/05/21 12:51:16;;;;;;;;;2.00;2.00;;;;;29.52;18.90;98287.09;6232207;27;125268;-68
2021/05/21 12:54:26;;;;;;;;;2.00;2.00;;;;;29.64;18.63;98287.00;6235891;28;124813;-67
2021/05/21 12:57:29;;;;;;;;;1.00;1.00;;;;;29.46;17.98;98286.59;6221813;28;124540;-69
2021/05/21 13:00:32;;;;;;;;;2.00;2.00;;;;;29.40;19.17;98274.16;6228045;28;126290;-68
2021/05/21 13:03:49;;;;;;;;;2.00;2.00;;;;;29.47;18.45;98268.75;6228865;28;126376;-68
2021/05/21 13:06:56;;;;;;;;;2.00;2.00;;;;;29.56;19.23;98271.34;6215539;28;124763;-68
2021/05/21 13:10:01;;;;;;;;;3.00;2.40;;;;;29.52;18.72;98264.88;6224588;28;124738;-71
2021/05/21 13:13:04;;;;;;;;;2.00;2.00;;;;;29.52;18.51;98254.56;6230319;28;125469;-68
2021/05/21 13:16:07;;;;;;;;;2.00;2.00;;;;;29.44;18.88;98250.03;6232043;28;124888;-68
2021/05/21 13:19:10;;;;;;;;;2.00;2.00;;;;;29.20;18.43;98242.69;6215511;28;124013;-68
2021/05/21 13:22:17;;;;;;;;;1.00;1.00;;;;;29.38;18.79;98251.47;6218679;28;123839;-69
2021/05/21 13:25:22;;;;;;;;;2.00;2.00;;;;;29.24;18.51;98240.00;6215601;28;124900;-70
2021/05/21 13:28:25;;;;;;;;;2.00;2.00;;;;;29.22;18.65;98247.91;6220836;28;124699;-69
2021/05/21 13:31:28;;;;;;;;;2.60;2.00;;;;;29.22;18.58;98253.44;6231611;28;126412;-66
2021/05/21 13:34:30;;;;;;;;;2.00;1.60;;;;;29.09;18.48;98247.16;6213406;28;125130;-67
2021/05/21 13:37:33;;;;;;;;;2.00;2.00;;;;;29.10;19.46;98247.97;6227505;27;125208;-65
2021/05/21 13:40:37;;;;;;;;;2.00;2.00;;;;;29.12;18.82;98245.66;6232219;28;126536;-68
2021/05/21 13:43:39;;;;;;;;;1.00;1.00;;;;;29.06;18.23;98245.13;6227476;28;124798;-68
2021/05/21 13:46:42;;;;;;;;;2.00;2.00;;;;;29.19;18.91;98246.63;6212670;28;125407;-68
2021/05/21 13:49:45;;;;;;;;;2.00;2.00;;;;;29.06;18.51;98234.03;6214313;28;126008;-68
2021/05/21 13:52:48;;;;;;;;;1.60;1.60;;;;;28.87;19.17;98220.06;6216519;28;125391;-68
2021/05/21 13:55:51;;;;;;;;;1.00;1.00;;;;;28.90;19.10;98243.50;6221408;27;125156;-68
2021/05/21 13:58:54;;;;;;;;;2.00;2.00;;;;;28.91;19.71;98242.34;6229565;27;126013;-68
2021/05/21 14:01:57;;;;;;;;;1.00;1.00;;;;;28.92;19.83;98246.75;6222855;27;125796;-68
2021/05/21 14:05:00;;;;;;;;;1.40;1.00;;;;;28.93;19.11;98237.25;6226400;28;126150;-67
2021/05/21 14:08:03;;;;;;;;;1.00;1.00;;;;;28.93;18.73;98249.13;6219794;28;124130;-68
2021/05/21 14:11:09;;;;;;;;;2.00;2.00;;;;;28.72;18.37;98246.63;6219751;28;124539;-68